Time;durP1;ratioP1;P1;durP2;ratioP2;P2;SDS_P1;SDS_P2;PMS_P1;PMS_P2;Temp;Humidity;BMP_temperature;BMP_pressure;BME280_temperature;BME280_humidity;BME280_pressure;Samples;Min_cycle;Max_cycle;Signal;HPM_P1;HPM_P2
2023/07/24 00:00:13;;;;;;;8.33;3.47;;;18.20;99.90;;;;;;4989789;28;20935;-71
2023/07/24 00:02:40;;;;;;;10.20;3.30;;;18.10;99.90;;;;;;4990676;28;20505;-71
2023/07/24 00:05:07;;;;;;;9.07;3.23;;;18.10;99.90;;;;;;4990945;28;20505;-71
2023/07/24 00:07:35;;;;;;;5.10;3.43;;;18.10;99.90;;;;;;4986898;28;20537;-71
2023/07/24 00:10:02;;;;;;;8.10;3.17;;;18.00;99.90;;;;;;4995069;28;20524;-71
2023/07/24 00:12:28;;;;;;;8.97;3.13;;;18.00;99.90;;;;;;4994897;28;20455;-71
2023/07/24 00:14:55;;;;;;;8.27;3.40;;;17.90;99.90;;;;;;4994606;28;20529;-71
2023/07/24 00:17:22;;;;;;;3.33;3.00;;;17.80;99.90;;;;;;4994904;28;20459;-71
2023/07/24 00:19:49;;;;;;;5.27;3.60;;;17.80;99.90;;;;;;4994561;28;20864;-71
2023/07/24 00:22:16;;;;;;;4.90;3.00;;;17.70;99.90;;;;;;4992827;28;20458;-71
2023/07/24 00:24:43;;;;;;;7.53;3.40;;;17.70;99.90;;;;;;4987472;28;20479;-71
2023/07/24 00:27:10;;;;;;;4.10;3.70;;;17.70;99.90;;;;;;4994735;28;20488;-71
2023/07/24 00:29:37;;;;;;;3.10;2.90;;;17.60;99.90;;;;;;4994096;28;21079;-71
2023/07/24 00:32:04;;;;;;;3.90;3.30;;;17.60;99.90;;;;;;4998162;28;20455;-71
2023/07/24 00:34:30;;;;;;;11.07;3.80;;;17.60;99.90;;;;;;4991996;28;20459;-71
2023/07/24 00:36:57;;;;;;;3.93;3.07;;;17.60;99.90;;;;;;4994396;28;20425;-71
2023/07/24 00:39:24;;;;;;;3.40;2.60;;;17.50;99.90;;;;;;4994314;28;20455;-71
2023/07/24 00:41:52;;;;;;;3.10;2.80;;;17.50;99.90;;;;;;4994496;28;21786;-71
2023/07/24 00:44:19;;;;;;;4.23;3.07;;;17.50;99.90;;;;;;4994425;28;20465;-71
2023/07/24 00:46:47;;;;;;;3.60;3.30;;;17.50;99.90;;;;;;4993764;28;20429;-71
2023/07/24 00:49:13;;;;;;;3.60;3.10;;;17.50;99.90;;;;;;4991193;28;20545;-71
2023/07/24 00:51:40;;;;;;;3.50;3.20;;;17.50;99.90;;;;;;4994506;28;20429;-71
2023/07/24 00:54:08;;;;;;;4.20;3.23;;;17.50;99.90;;;;;;4994137;28;20517;-71
2023/07/24 00:56:35;;;;;;;3.97;3.33;;;17.50;99.90;;;;;;4993130;28;20994;-71
2023/07/24 00:59:03;;;;;;;11.70;3.00;;;17.50;99.90;;;;;;4994344;28;20434;-71
2023/07/24 01:01:30;;;;;;;3.90;3.10;;;17.50;99.90;;;;;;4991670;28;20485;-71
2023/07/24 01:03:58;;;;;;;5.70;3.40;;;17.50;99.90;;;;;;4989447;28;20490;-71
2023/07/24 01:06:25;;;;;;;7.23;3.33;;;17.50;99.90;;;;;;4990696;28;20973;-70
2023/07/24 01:08:52;;;;;;;3.83;2.90;;;17.50;99.90;;;;;;4993299;28;20482;-71
2023/07/24 01:11:21;;;;;;;4.63;2.73;;;17.50;99.90;;;;;;4993476;28;21007;-71
2023/07/24 01:13:58;;;;;;;3.63;3.20;;;17.60;99.90;;;;;;4993431;28;20430;-71
2023/07/24 01:16:31;;;;;;;3.20;2.90;;;17.60;99.90;;;;;;4993453;28;20511;-71
2023/07/24 01:18:59;;;;;;;6.93;3.07;;;17.60;99.90;;;;;;4991552;28;20433;-70
2023/07/24 01:21:34;;;;;;;3.30;3.00;;;17.60;99.90;;;;;;4986290;28;20527;-71
2023/07/24 01:24:15;;;;;;;7.30;3.03;;;17.60;99.90;;;;;;4986075;28;20454;-71
2023/07/24 01:26:43;;;;;;;8.20;4.10;;;17.70;99.90;;;;;;4992639;28;20487;-71
2023/07/24 01:29:10;;;;;;;4.50;3.43;;;17.70;99.90;;;;;;4992241;28;20995;-71
2023/07/24 01:31:37;;;;;;;3.20;2.63;;;17.70;99.90;;;;;;4998404;28;20438;-71
2023/07/24 01:34:03;;;;;;;4.80;3.20;;;17.70;99.90;;;;;;4992406;28;20505;-71
2023/07/24 01:36:30;;;;;;;3.67;2.83;;;17.70;99.90;;;;;;4989615;28;20445;-70
2023/07/24 01:38:57;;;;;;;3.63;3.00;;;17.70;99.90;;;;;;4993289;28;20494;-71
2023/07/24 01:41:24;;;;;;;9.43;2.80;;;17.70;99.90;;;;;;4993175;28;20517;-71
2023/07/24 01:43:52;;;;;;;7.57;3.40;;;17.70;99.90;;;;;;4993407;28;20447;-71
2023/07/24 01:46:19;;;;;;;4.93;3.33;;;17.70;99.90;;;;;;4991162;28;20533;-71
2023/07/24 01:48:46;;;;;;;5.03;3.73;;;17.70;99.90;;;;;;4977455;28;20897;-71
2023/07/24 01:51:13;;;;;;;5.77;3.30;;;17.70;99.90;;;;;;4993143;28;20459;-71
2023/07/24 01:53:39;;;;;;;7.77;3.07;;;17.70;99.90;;;;;;4993056;28;20429;-71
2023/07/24 01:56:06;;;;;;;10.90;3.73;;;17.60;99.90;;;;;;4992200;28;20965;-71
2023/07/24 01:58:32;;;;;;;5.90;3.10;;;17.60;99.90;;;;;;4986695;28;20449;-71
2023/07/24 02:01:01;;;;;;;5.77;3.13;;;17.60;99.90;;;;;;4991905;28;20467;-71
2023/07/24 02:03:27;;;;;;;3.83;3.40;;;17.60;99.90;;;;;;4993152;28;20451;-71
2023/07/24 02:05:54;;;;;;;4.37;2.93;;;17.60;99.90;;;;;;4992846;28;20475;-71
2023/07/24 02:08:20;;;;;;;3.47;3.17;;;17.60;99.90;;;;;;4992879;28;21046;-71
2023/07/24 02:10:50;;;;;;;3.90;2.83;;;17.60;99.90;;;;;;4992066;28;20426;-71
2023/07/24 02:13:17;;;;;;;6.10;3.07;;;17.60;99.90;;;;;;4986718;28;20457;-71
2023/07/24 02:15:43;;;;;;;4.67;3.10;;;17.60;99.90;;;;;;4992739;28;20929;-71
2023/07/24 02:18:11;;;;;;;5.17;3.23;;;17.70;99.90;;;;;;4992557;28;20936;-71
2023/07/24 02:20:38;;;;;;;8.23;3.87;;;17.70;99.90;;;;;;4979141;28;20467;-71
2023/07/24 02:23:05;;;;;;;6.80;3.20;;;17.70;99.90;;;;;;4984460;28;20448;-71
2023/07/24 02:25:31;;;;;;;3.80;3.17;;;17.80;99.90;;;;;;4991442;28;20511;-71
2023/07/24 02:27:58;;;;;;;8.23;3.10;;;17.80;99.90;;;;;;4992374;28;20455;-71
2023/07/24 02:30:24;;;;;;;3.80;3.03;;;17.80;99.90;;;;;;4995374;28;20458;-71
2023/07/24 02:32:51;;;;;;;4.50;3.20;;;17.80;99.90;;;;;;4993981;28;21010;-71
2023/07/24 02:35:19;;;;;;;4.70;3.30;;;17.80;99.90;;;;;;4992405;28;20525;-71
2023/07/24 02:37:45;;;;;;;3.80;3.40;;;17.80;99.90;;;;;;4992402;28;20890;-71
2023/07/24 02:40:13;;;;;;;7.47;3.20;;;17.70;99.90;;;;;;4991055;28;20451;-71
2023/07/24 02:42:39;;;;;;;5.70;3.80;;;17.80;99.90;;;;;;4988483;28;20509;-71
2023/07/24 02:45:10;;;;;;;3.50;3.20;;;17.80;99.90;;;;;;4984319;28;20521;-71
2023/07/24 02:47:37;;;;;;;4.37;3.47;;;17.80;99.90;;;;;;4991836;28;20513;-71
2023/07/24 02:50:04;;;;;;;4.03;3.10;;;17.80;99.90;;;;;;4990744;28;20593;-72
2023/07/24 02:52:32;;;;;;;3.43;3.13;;;17.80;99.90;;;;;;4991829;28;20472;-72
2023/07/24 02:54:58;;;;;;;6.90;3.50;;;17.80;99.90;;;;;;4990820;28;20471;-71
2023/07/24 02:57:25;;;;;;;3.70;3.03;;;17.80;99.90;;;;;;4990969;28;20506;-71
2023/07/24 02:59:52;;;;;;;11.37;3.77;;;17.80;99.90;;;;;;4991695;28;20452;-71
2023/07/24 03:02:18;;;;;;;4.90;3.10;;;17.80;99.90;;;;;;4992039;28;20928;-71
2023/07/24 03:04:45;;;;;;;4.10;3.50;;;17.80;99.90;;;;;;4991748;28;20490;-71
2023/07/24 03:07:11;;;;;;;5.23;3.27;;;17.80;99.90;;;;;;4992042;28;20476;-71
2023/07/24 03:09:39;;;;;;;4.17;3.10;;;17.80;99.90;;;;;;4984513;28;20491;-71
2023/07/24 03:12:07;;;;;;;4.60;3.27;;;17.80;99.90;;;;;;4988201;28;20818;-71
2023/07/24 03:14:33;;;;;;;5.30;3.70;;;17.80;99.90;;;;;;4991722;28;20488;-71
2023/07/24 03:17:00;;;;;;;4.17;2.80;;;17.80;99.90;;;;;;4990875;28;20467;-71
2023/07/24 03:19:27;;;;;;;8.30;3.10;;;17.80;99.90;;;;;;4991403;28;20517;-71
2023/07/24 03:21:53;;;;;;;3.77;3.30;;;17.80;99.90;;;;;;4991609;28;20470;-71
2023/07/24 03:24:20;;;;;;;8.10;3.37;;;17.90;99.90;;;;;;4991708;28;20459;-71
2023/07/24 03:26:48;;;;;;;4.00;3.13;;;17.90;99.90;;;;;;4990482;28;21029;-71
2023/07/24 03:29:15;;;;;;;4.40;2.80;;;17.90;99.90;;;;;;4991470;28;20494;-71
2023/07/24 03:31:41;;;;;;;5.63;3.57;;;17.90;99.90;;;;;;4997569;28;20498;-71
2023/07/24 03:34:08;;;;;;;3.77;3.40;;;17.90;99.90;;;;;;4989616;28;20451;-71
2023/07/24 03:36:35;;;;;;;5.23;4.00;;;17.90;99.90;;;;;;4988053;28;21195;-71
2023/07/24 03:39:02;;;;;;;3.97;3.57;;;17.80;99.90;;;;;;4990306;28;20430;-71
2023/07/24 03:41:29;;;;;;;7.00;3.17;;;17.80;99.90;;;;;;4990425;28;20546;-71
2023/07/24 03:43:57;;;;;;;5.80;3.90;;;17.80;99.90;;;;;;4989215;28;20482;-71
2023/07/24 03:46:23;;;;;;;5.67;3.03;;;17.80;99.90;;;;;;4981468;28;20557;-71
2023/07/24 03:48:50;;;;;;;6.20;3.43;;;17.70;99.90;;;;;;4989334;28;21245;-71
2023/07/24 03:51:17;;;;;;;6.67;3.37;;;17.70;99.90;;;;;;4991106;28;20486;-71
2023/07/24 03:53:44;;;;;;;4.90;3.30;;;17.70;99.90;;;;;;4991363;28;20459;-71
2023/07/24 03:56:10;;;;;;;5.93;3.47;;;17.70;99.90;;;;;;4991316;28;20882;-71
2023/07/24 03:58:39;;;;;;;5.73;3.50;;;17.60;99.90;;;;;;4991026;28;20444;-71
2023/07/24 04:01:07;;;;;;;10.93;4.13;;;17.60;99.90;;;;;;4989901;28;20978;-71
2023/07/24 04:03:33;;;;;;;3.83;3.50;;;17.60;99.90;;;;;;4991167;28;20426;-72
2023/07/24 04:06:00;;;;;;;6.87;3.37;;;17.60;99.90;;;;;;4991048;28;20471;-69
2023/07/24 04:08:27;;;;;;;4.10;3.40;;;17.60;99.90;;;;;;4991534;28;20451;-69
2023/07/24 04:10:55;;;;;;;5.60;3.37;;;17.60;99.90;;;;;;4983275;28;20455;-68
2023/07/24 04:13:22;;;;;;;4.10;3.40;;;17.60;99.90;;;;;;4985023;28;20463;-68
2023/07/24 04:15:50;;;;;;;4.33;3.80;;;17.60;99.90;;;;;;4991218;28;21020;-68
2023/07/24 04:18:18;;;;;;;6.33;3.87;;;17.60;99.90;;;;;;4987179;28;20521;-68
2023/07/24 04:20:44;;;;;;;3.37;3.07;;;17.60;99.90;;;;;;4991251;28;20870;-68
2023/07/24 04:23:11;;;;;;;11.53;3.40;;;17.60;99.90;;;;;;4991384;28;20426;-68
2023/07/24 04:25:38;;;;;;;3.37;3.07;;;17.60;99.90;;;;;;4991415;28;20476;-69
2023/07/24 04:28:05;;;;;;;4.47;3.00;;;17.60;99.90;;;;;;4991314;28;20429;-69
2023/07/24 04:30:31;;;;;;;4.37;3.43;;;17.70;99.90;;;;;;4995235;28;20497;-69
2023/07/24 04:32:58;;;;;;;6.70;3.77;;;17.70;99.90;;;;;;4990300;28;20430;-69
2023/07/24 04:35:27;;;;;;;3.90;3.33;;;17.90;99.90;;;;;;4990401;28;20521;-69
2023/07/24 04:37:54;;;;;;;9.13;3.80;;;17.90;99.90;;;;;;4990300;28;20841;-69
2023/07/24 04:40:20;;;;;;;11.77;3.50;;;18.00;99.90;;;;;;4990547;28;20451;-69
2023/07/24 04:42:47;;;;;;;5.63;3.30;;;18.00;99.90;;;;;;4991214;28;20426;-69
2023/07/24 04:45:14;;;;;;;9.93;3.23;;;18.00;99.90;;;;;;4983721;28;21581;-69
2023/07/24 04:47:40;;;;;;;8.60;3.43;;;18.00;99.90;;;;;;4990684;28;20497;-69
2023/07/24 04:50:07;;;;;;;5.20;3.43;;;18.00;99.90;;;;;;4989804;28;20494;-70
2023/07/24 04:52:35;;;;;;;9.40;3.63;;;18.00;99.90;;;;;;4991136;28;20513;-69
2023/07/24 04:55:02;;;;;;;5.17;3.87;;;18.10;99.90;;;;;;4992178;28;20472;-69
2023/07/24 04:57:29;;;;;;;4.63;3.50;;;18.10;99.90;;;;;;4993987;28;20542;-69
2023/07/24 04:59:55;;;;;;;4.97;3.33;;;18.10;99.90;;;;;;4992877;28;20985;-70
2023/07/24 05:02:22;;;;;;;6.90;4.03;;;18.10;99.90;;;;;;4992404;28;20459;-69
2023/07/24 05:04:48;;;;;;;5.83;3.80;;;18.10;99.90;;;;;;4990761;28;20474;-69
2023/07/24 05:07:15;;;;;;;11.20;3.80;;;18.20;99.90;;;;;;4991152;28;20882;-68
2023/07/24 05:09:43;;;;;;;4.80;3.67;;;18.20;99.90;;;;;;4993862;28;20462;-69
2023/07/24 05:12:10;;;;;;;4.20;3.60;;;18.20;99.90;;;;;;4993947;28;20429;-69
2023/07/24 05:14:36;;;;;;;10.03;3.67;;;18.20;99.90;;;;;;4990506;28;21048;-69
2023/07/24 05:17:03;;;;;;;8.30;3.20;;;18.20;99.90;;;;;;4992353;28;20458;-69
2023/07/24 05:19:30;;;;;;;6.10;3.70;;;18.20;99.90;;;;;;4993951;28;20455;-69
2023/07/24 05:21:56;;;;;;;6.60;3.93;;;18.20;99.90;;;;;;4989171;28;20464;-69
2023/07/24 05:24:23;;;;;;;3.53;3.20;;;18.20;99.90;;;;;;4993971;28;20753;-69
2023/07/24 05:26:51;;;;;;;6.07;3.70;;;18.20;99.90;;;;;;4991743;28;20522;-68
2023/07/24 05:29:18;;;;;;;8.10;4.80;;;18.20;99.90;;;;;;4993701;28;20486;-68
2023/07/24 05:31:44;;;;;;;8.93;4.10;;;18.20;99.90;;;;;;5001319;28;20449;-69
2023/07/24 05:34:11;;;;;;;6.60;4.53;;;18.20;99.90;;;;;;4993937;28;20511;-69
2023/07/24 05:36:37;;;;;;;4.30;3.73;;;18.20;99.90;;;;;;4985829;28;20565;-69
2023/07/24 05:39:04;;;;;;;11.97;3.80;;;18.20;99.90;;;;;;4992329;28;20429;-68
2023/07/24 05:41:31;;;;;;;4.30;3.40;;;18.30;99.90;;;;;;4991834;28;20451;-69
2023/07/24 05:43:59;;;;;;;4.47;3.10;;;18.30;99.90;;;;;;4991861;28;20533;-69
2023/07/24 05:46:25;;;;;;;4.17;3.70;;;18.40;99.90;;;;;;4993026;28;20864;-69
2023/07/24 05:48:52;;;;;;;8.43;3.57;;;18.40;99.90;;;;;;4992257;28;20434;-69
2023/07/24 05:51:18;;;;;;;5.00;3.40;;;18.50;99.90;;;;;;4991956;28;20549;-69
2023/07/24 05:53:45;;;;;;;6.03;3.67;;;18.50;99.90;;;;;;4991131;28;20985;-69
2023/07/24 05:56:12;;;;;;;5.47;3.30;;;18.60;99.90;;;;;;4991386;28;20479;-69
2023/07/24 05:58:38;;;;;;;7.90;3.80;;;18.70;99.90;;;;;;4991411;28;20459;-69
2023/07/24 06:01:08;;;;;;;6.40;3.90;;;18.80;99.90;;;;;;4991281;28;20459;-69
2023/07/24 06:03:34;;;;;;;4.30;3.30;;;18.90;99.90;;;;;;4990764;28;21015;-69
2023/07/24 06:06:01;;;;;;;8.90;4.80;;;19.10;99.90;;;;;;4991447;28;20882;-68
2023/07/24 06:08:28;;;;;;;4.10;3.50;;;19.30;99.90;;;;;;4991355;28;20497;-69
2023/07/24 06:10:54;;;;;;;6.43;3.67;;;19.50;99.90;;;;;;4983974;28;20537;-69
2023/07/24 06:13:21;;;;;;;5.73;3.90;;;19.70;99.90;;;;;;4984518;28;20502;-69
2023/07/24 06:15:48;;;;;;;5.30;4.47;;;19.80;99.90;;;;;;4988365;28;20482;-69
2023/07/24 06:18:17;;;;;;;6.90;4.33;;;19.80;99.90;;;;;;4988823;28;20459;-69
2023/07/24 06:20:43;;;;;;;4.73;3.83;;;19.90;99.90;;;;;;4987753;28;20514;-69
2023/07/24 06:23:10;;;;;;;9.33;5.00;;;20.00;99.90;;;;;;4988639;28;20486;-68
2023/07/24 06:25:36;;;;;;;5.23;4.20;;;20.10;99.90;;;;;;4986130;28;20479;-69
2023/07/24 06:28:03;;;;;;;14.90;4.67;;;20.20;99.90;;;;;;4986973;28;20455;-69
2023/07/24 06:30:30;;;;;;;5.13;4.30;;;20.20;99.90;;;;;;4987767;28;20521;-68
2023/07/24 06:32:56;;;;;;;5.70;4.33;;;20.00;99.90;;;;;;4988117;28;20459;-69
2023/07/24 06:35:24;;;;;;;7.57;5.30;;;20.00;99.90;;;;;;4987189;28;20910;-69
2023/07/24 06:37:51;;;;;;;8.33;5.00;;;19.80;99.90;;;;;;4988088;28;20510;-69
2023/07/24 06:40:18;;;;;;;8.47;5.90;;;19.70;99.90;;;;;;4987370;28;20499;-69
2023/07/24 06:42:44;;;;;;;6.90;4.60;;;19.70;99.90;;;;;;4987291;28;20797;-69
2023/07/24 06:45:11;;;;;;;6.90;5.17;;;19.70;99.90;;;;;;4988226;28;20537;-69
2023/07/24 06:47:38;;;;;;;12.10;5.73;;;19.70;99.90;;;;;;4988158;28;20994;-69
2023/07/24 06:50:05;;;;;;;7.90;5.40;;;19.70;99.90;;;;;;4988483;28;20542;-69
2023/07/24 06:52:34;;;;;;;6.90;5.20;;;19.80;99.90;;;;;;4987884;28;20485;-69
2023/07/24 06:55:00;;;;;;;8.23;5.13;;;19.90;99.90;;;;;;4987334;28;21739;-69
2023/07/24 06:57:27;;;;;;;11.90;5.57;;;19.90;99.90;;;;;;4988696;28;20443;-69
2023/07/24 06:59:54;;;;;;;7.77;5.23;;;19.90;99.90;;;;;;4988325;28;20447;-69
2023/07/24 07:02:20;;;;;;;5.53;4.40;;;20.10;99.90;;;;;;4987347;28;20459;-69
2023/07/24 07:04:47;;;;;;;6.17;5.07;;;20.10;99.90;;;;;;4988133;28;20529;-70
2023/07/24 07:07:13;;;;;;;7.73;4.70;;;20.10;99.90;;;;;;4987091;28;20452;-69
2023/07/24 07:09:42;;;;;;;7.33;5.13;;;20.10;99.90;;;;;;4987361;28;20943;-69
2023/07/24 07:12:09;;;;;;;14.93;5.00;;;20.10;99.90;;;;;;4987795;28;20498;-68
2023/07/24 07:14:35;;;;;;;5.90;5.23;;;20.10;99.90;;;;;;4987186;28;21285;-68
2023/07/24 07:17:02;;;;;;;8.80;4.47;;;20.10;99.90;;;;;;4986811;28;20511;-70
2023/07/24 07:19:29;;;;;;;10.43;5.17;;;20.10;99.90;;;;;;4987354;28;20451;-69
2023/07/24 07:21:55;;;;;;;11.57;5.60;;;20.10;99.90;;;;;;4987027;28;20474;-71
2023/07/24 07:24:22;;;;;;;13.80;6.07;;;20.10;99.90;;;;;;4987739;28;20459;-69
2023/07/24 07:26:50;;;;;;;10.17;5.23;;;20.10;99.90;;;;;;4987347;28;20514;-69
2023/07/24 07:29:16;;;;;;;7.30;6.20;;;20.10;99.90;;;;;;4986382;28;20970;-70
2023/07/24 07:31:43;;;;;;;6.90;5.00;;;20.10;99.90;;;;;;4986908;28;20537;-70
2023/07/24 07:34:09;;;;;;;7.47;5.70;;;20.10;99.90;;;;;;4986407;28;20550;-70
2023/07/24 07:36:36;;;;;;;13.13;5.37;;;20.30;99.90;;;;;;4986793;28;20479;-68
2023/07/24 07:39:03;;;;;;;9.43;5.10;;;20.40;99.90;;;;;;4988003;28;20509;-69
2023/07/24 07:41:29;;;;;;;12.10;5.20;;;20.50;99.90;;;;;;4986801;28;20458;-69
2023/07/24 07:43:58;;;;;;;8.43;5.17;;;20.60;99.90;;;;;;4987762;28;20518;-69
2023/07/24 07:46:25;;;;;;;11.83;5.40;;;20.70;99.90;;;;;;4987844;28;20479;-69
2023/07/24 07:48:52;;;;;;;7.70;5.20;;;20.70;99.90;;;;;;4987010;28;20471;-69
2023/07/24 07:51:18;;;;;;;7.93;4.83;;;20.80;99.90;;;;;;4987767;28;20483;-69
2023/07/24 07:53:45;;;;;;;5.87;4.70;;;20.80;99.90;;;;;;4987139;28;20533;-68
2023/07/24 07:56:12;;;;;;;5.77;5.17;;;20.80;99.90;;;;;;4986079;28;20999;-69
2023/07/24 07:58:38;;;;;;;9.03;4.70;;;20.80;99.90;;;;;;4986944;28;20463;-69
2023/07/24 08:01:07;;;;;;;11.03;4.73;;;20.80;99.90;;;;;;4986133;28;20447;-69
2023/07/24 08:03:34;;;;;;;14.10;6.60;;;20.80;99.90;;;;;;4987021;28;20518;-69
2023/07/24 08:06:00;;;;;;;7.27;4.90;;;20.90;99.90;;;;;;4987061;28;21022;-69
2023/07/24 08:08:27;;;;;;;9.40;5.23;;;20.90;99.90;;;;;;4985970;28;20455;-69
2023/07/24 08:10:54;;;;;;;12.33;5.00;;;21.10;99.90;;;;;;4986586;28;20483;-69
2023/07/24 08:13:20;;;;;;;7.20;4.27;;;21.20;99.90;;;;;;4987105;28;20459;-69
2023/07/24 08:15:47;;;;;;;8.90;4.80;;;21.20;99.90;;;;;;4986094;28;20517;-69
2023/07/24 08:18:15;;;;;;;8.43;4.40;;;21.40;99.90;;;;;;4987368;28;20451;-69
2023/07/24 08:20:42;;;;;;;8.43;5.10;;;21.50;99.90;;;;;;4986826;28;21071;-69
2023/07/24 08:23:08;;;;;;;6.33;4.30;;;21.70;99.90;;;;;;4986240;28;20455;-70
2023/07/24 08:25:35;;;;;;;7.13;4.80;;;21.90;99.90;;;;;;4987604;28;20479;-69
2023/07/24 08:28:01;;;;;;;6.90;4.57;;;22.00;99.90;;;;;;4987763;28;20462;-70
2023/07/24 08:30:28;;;;;;;9.20;4.40;;;22.20;99.90;;;;;;4989150;28;20491;-70
2023/07/24 08:32:55;;;;;;;8.03;4.77;;;22.30;99.90;;;;;;4991327;28;20550;-70
2023/07/24 08:35:23;;;;;;;6.63;4.57;;;22.40;99.90;;;;;;4985527;28;20537;-70
2023/07/24 08:37:49;;;;;;;7.10;4.57;;;22.50;99.90;;;;;;4987997;28;20447;-70
2023/07/24 08:40:17;;;;;;;5.60;4.60;;;22.50;99.90;;;;;;4989586;28;20484;-69
2023/07/24 08:42:44;;;;;;;7.03;4.30;;;22.50;99.90;;;;;;4988986;28;20455;-69
2023/07/24 08:45:13;;;;;;;8.03;4.13;;;22.50;99.90;;;;;;4989551;28;20545;-69
2023/07/24 08:47:43;;;;;;;4.83;4.33;;;22.50;99.90;;;;;;4989982;28;20471;-69
2023/07/24 08:50:12;;;;;;;9.50;4.70;;;22.70;99.90;;;;;;4988344;28;20451;-69
2023/07/24 08:52:42;;;;;;;8.93;4.47;;;22.80;99.90;;;;;;4989494;28;21275;-70
2023/07/24 08:55:09;;;;;;;6.03;4.80;;;23.00;99.90;;;;;;4989128;28;20482;-69
2023/07/24 08:57:36;;;;;;;5.20;4.57;;;23.10;99.90;;;;;;4988636;28;20517;-69
2023/07/24 09:00:05;;;;;;;7.17;3.80;;;23.20;99.90;;;;;;4986333;28;20707;-69
2023/07/24 09:02:33;;;;;;;5.03;4.07;;;23.20;99.90;;;;;;4988085;28;20483;-70
2023/07/24 09:05:00;;;;;;;6.70;4.03;;;23.20;99.90;;;;;;4988328;28;20483;-70
2023/07/24 09:07:27;;;;;;;5.90;4.13;;;23.30;99.90;;;;;;4989258;28;20463;-70
2023/07/24 09:09:55;;;;;;;8.93;4.80;;;23.30;99.90;;;;;;4986084;28;20517;-70
2023/07/24 09:12:23;;;;;;;12.90;4.10;;;23.30;99.90;;;;;;4988285;28;20491;-70
2023/07/24 09:14:49;;;;;;;8.13;4.67;;;23.20;99.90;;;;;;4989337;28;20464;-70
2023/07/24 09:17:16;;;;;;;4.77;4.03;;;23.20;99.90;;;;;;4987482;28;20447;-70
2023/07/24 09:19:43;;;;;;;6.83;4.53;;;23.10;99.90;;;;;;4988232;28;20463;-70
2023/07/24 09:22:11;;;;;;;6.00;4.67;;;23.10;99.90;;;;;;4988144;28;20458;-70
2023/07/24 09:24:38;;;;;;;8.10;4.20;;;23.20;99.90;;;;;;4989157;28;20995;-69
2023/07/24 09:27:08;;;;;;;8.70;4.03;;;23.20;99.90;;;;;;4989887;28;20853;-70
2023/07/24 09:29:35;;;;;;;6.17;4.60;;;23.30;99.90;;;;;;4988316;28;20459;-70
2023/07/24 09:32:02;;;;;;;4.10;3.70;;;23.30;99.90;;;;;;4988883;28;20494;-70
2023/07/24 09:34:28;;;;;;;6.80;4.83;;;23.60;99.90;;;;;;4989408;28;20525;-70
2023/07/24 09:36:55;;;;;;;5.07;4.20;;;23.70;99.90;;;;;;4988870;28;20459;-70
2023/07/24 09:39:23;;;;;;;5.53;4.50;;;23.80;99.90;;;;;;4987513;28;20454;-70
2023/07/24 09:41:50;;;;;;;7.83;4.53;;;23.90;99.90;;;;;;4989245;28;20471;-69
2023/07/24 09:44:18;;;;;;;4.77;4.37;;;24.00;99.90;;;;;;4987789;28;21010;-70
2023/07/24 09:46:45;;;;;;;5.70;4.07;;;23.90;99.90;;;;;;4988741;28;20463;-69
2023/07/24 09:49:12;;;;;;;4.97;4.40;;;24.00;99.90;;;;;;4988376;28;20462;-70
2023/07/24 09:51:39;;;;;;;6.30;4.20;;;24.30;99.90;;;;;;4988442;28;20483;-70
2023/07/24 09:54:12;;;;;;;5.17;3.83;;;24.50;99.90;;;;;;4989423;28;20447;-70
2023/07/24 09:56:41;;;;;;;4.57;4.17;;;24.50;99.90;;;;;;4988776;28;20933;-70
2023/07/24 09:59:08;;;;;;;4.20;3.80;;;24.60;99.90;;;;;;4988011;28;20490;-69
2023/07/24 10:01:37;;;;;;;3.60;3.30;;;24.70;99.90;;;;;;4988005;28;21014;-69
2023/07/24 10:04:05;;;;;;;5.83;4.20;;;24.90;99.90;;;;;;4988246;28;20459;-70
2023/07/24 10:06:32;;;;;;;7.13;4.00;;;24.80;99.90;;;;;;4988475;28;20467;-70
2023/07/24 10:09:00;;;;;;;6.07;4.40;;;24.80;99.90;;;;;;4989494;28;20501;-69
2023/07/24 10:11:27;;;;;;;5.47;4.47;;;24.70;99.90;;;;;;4986890;28;20486;-69
2023/07/24 10:13:54;;;;;;;8.50;3.90;;;24.60;99.90;;;;;;4988405;28;20513;-70
2023/07/24 10:16:21;;;;;;;5.00;4.30;;;24.90;99.90;;;;;;4987689;28;20471;-70
2023/07/24 10:18:49;;;;;;;5.23;3.70;;;25.10;99.90;;;;;;4987596;28;20448;-69
2023/07/24 10:21:16;;;;;;;5.90;3.80;;;25.10;99.90;;;;;;4987552;28;20459;-69
2023/07/24 10:23:46;;;;;;;5.97;3.70;;;25.00;99.90;;;;;;4987922;28;20456;-69
2023/07/24 10:26:14;;;;;;;7.20;4.00;;;24.80;99.90;;;;;;4987604;28;20511;-70
2023/07/24 10:28:41;;;;;;;5.97;4.30;;;24.70;99.90;;;;;;4988385;28;20466;-69
2023/07/24 10:31:19;;;;;;;7.60;4.27;;;24.80;99.90;;;;;;4986081;28;20535;-69
2023/07/24 10:33:46;;;;;;;4.30;3.60;;;24.70;99.90;;;;;;4988569;28;20439;-69
2023/07/24 10:36:19;;;;;;;4.37;3.97;;;24.80;99.90;;;;;;4988615;28;20882;-70
2023/07/24 10:38:47;;;;;;;4.43;3.90;;;24.80;99.90;;;;;;4986370;28;20459;-69
2023/07/24 10:41:14;;;;;;;5.43;4.60;;;24.70;99.90;;;;;;4987772;28;20920;-70
2023/07/24 10:43:43;;;;;;;6.73;3.70;;;24.60;99.90;;;;;;4988113;28;20463;-68
2023/07/24 10:46:10;;;;;;;5.90;4.57;;;24.80;99.90;;;;;;4987109;28;20474;-69
2023/07/24 10:48:37;;;;;;;7.73;4.07;;;24.90;99.90;;;;;;4987837;28;20823;-71
2023/07/24 10:51:08;;;;;;;4.90;4.40;;;24.90;99.90;;;;;;4985273;28;21089;-70
2023/07/24 10:53:37;;;;;;;5.90;4.10;;;24.90;99.90;;;;;;4988307;28;20452;-69
2023/07/24 10:56:04;;;;;;;7.27;4.20;;;24.90;99.90;;;;;;4987492;28;20478;-68
2023/07/24 10:58:31;;;;;;;6.77;3.63;;;25.10;99.90;;;;;;4986735;28;20448;-69
2023/07/24 11:00:58;;;;;;;4.90;4.13;;;25.10;99.90;;;;;;4986656;28;21071;-70
2023/07/24 11:03:26;;;;;;;5.50;4.30;;;25.20;99.90;;;;;;4987536;28;20468;-69
2023/07/24 11:05:53;;;;;;;9.67;4.00;;;25.20;99.90;;;;;;4986786;28;20475;-70
2023/07/24 11:08:21;;;;;;;4.40;3.70;;;25.20;99.90;;;;;;4987871;28;20542;-69
2023/07/24 11:10:50;;;;;;;12.63;4.50;;;25.30;99.90;;;;;;4986387;28;20885;-70
2023/07/24 11:13:17;;;;;;;6.80;4.13;;;25.40;99.90;;;;;;4986282;28;20455;-69
2023/07/24 11:15:44;;;;;;;5.60;3.53;;;25.60;99.90;;;;;;4986672;28;20610;-69
2023/07/24 11:18:11;;;;;;;5.30;4.50;;;25.90;99.90;;;;;;4986307;28;20893;-69
2023/07/24 11:20:39;;;;;;;5.87;3.83;;;25.90;99.90;;;;;;4985934;28;20537;-69
2023/07/24 11:23:06;;;;;;;10.90;4.10;;;26.00;99.90;;;;;;4987312;28;20447;-69
2023/07/24 11:25:33;;;;;;;5.33;3.90;;;25.90;99.90;;;;;;4985798;28;20470;-69
2023/07/24 11:28:01;;;;;;;7.43;4.50;;;25.70;99.90;;;;;;4986311;28;20463;-69
2023/07/24 11:30:27;;;;;;;6.00;4.43;;;25.60;99.90;;;;;;4985515;28;20840;-69
2023/07/24 11:32:55;;;;;;;14.33;4.23;;;25.30;99.90;;;;;;4986233;28;20557;-69
2023/07/24 11:35:22;;;;;;;7.83;4.60;;;25.20;99.90;;;;;;4986963;28;20475;-69
2023/07/24 11:37:49;;;;;;;8.10;5.20;;;25.10;99.90;;;;;;4986010;28;20546;-70
2023/07/24 11:40:15;;;;;;;7.20;4.60;;;25.10;99.90;;;;;;4985302;28;20455;-68
2023/07/24 11:42:44;;;;;;;8.07;4.37;;;25.20;99.90;;;;;;4986435;28;20447;-68
2023/07/24 11:45:12;;;;;;;6.13;4.47;;;25.50;99.90;;;;;;4985783;28;20467;-67
2023/07/24 11:47:43;;;;;;;4.33;3.93;;;25.60;99.90;;;;;;4986677;28;20513;-68
2023/07/24 11:50:10;;;;;;;9.90;4.13;;;25.60;99.90;;;;;;4986421;28;20796;-68
2023/07/24 11:52:43;;;;;;;7.63;4.43;;;25.50;99.90;;;;;;4986089;28;20529;-68
2023/07/24 11:55:10;;;;;;;5.70;4.27;;;25.50;99.90;;;;;;4986036;28;21080;-68
2023/07/24 11:57:36;;;;;;;5.33;4.47;;;25.60;99.90;;;;;;4986286;28;20470;-68
2023/07/24 12:00:05;;;;;;;5.40;4.40;;;25.70;99.90;;;;;;4985196;28;20463;-68
2023/07/24 12:02:34;;;;;;;6.83;4.43;;;25.80;99.90;;;;;;4988064;28;20451;-68
2023/07/24 12:05:02;;;;;;;8.47;4.80;;;26.00;99.90;;;;;;4990584;28;20475;-68
2023/07/24 12:07:33;;;;;;;5.53;4.17;;;26.20;99.90;;;;;;4990212;28;20463;-68
2023/07/24 12:10:00;;;;;;;12.30;4.70;;;26.40;99.90;;;;;;4988842;28;20455;-67
2023/07/24 12:12:40;;;;;;;7.03;4.63;;;26.70;99.90;;;;;;4989792;28;20505;-67
2023/07/24 12:15:08;;;;;;;7.47;5.00;;;26.80;99.90;;;;;;4989820;28;20478;-66
2023/07/24 12:17:36;;;;;;;6.90;5.20;;;27.00;99.90;;;;;;4990575;28;20505;-67
2023/07/24 12:20:04;;;;;;;5.37;4.67;;;27.30;99.90;;;;;;4989605;28;20496;-67
2023/07/24 12:22:31;;;;;;;8.87;4.40;;;27.40;99.90;;;;;;4990505;28;20458;-67
2023/07/24 12:24:57;;;;;;;8.13;5.17;;;27.70;99.90;;;;;;4990220;28;20474;-66
2023/07/24 12:27:24;;;;;;;6.40;4.77;;;27.80;99.90;;;;;;4989225;28;20447;-66
2023/07/24 12:29:51;;;;;;;8.87;4.30;;;27.80;99.90;;;;;;4989288;28;20555;-69
2023/07/24 12:32:18;;;;;;;6.87;4.27;;;27.50;99.90;;;;;;4989573;28;20490;-68
2023/07/24 12:34:47;;;;;;;8.80;4.77;;;28.00;99.90;;;;;;4989457;28;21182;-68
2023/07/24 12:37:14;;;;;;;7.40;4.70;;;27.90;99.90;;;;;;4989833;28;20455;-67
2023/07/24 12:39:41;;;;;;;5.87;4.30;;;27.90;99.90;;;;;;4988977;28;20477;-67
2023/07/24 12:42:07;;;;;;;9.33;4.20;;;27.90;99.90;;;;;;4989153;28;20478;-68
2023/07/24 12:44:34;;;;;;;6.43;4.23;;;27.90;99.90;;;;;;4989887;28;20471;-68